sensor_id;sensor_type;location;lat;lon;timestamp;temperature;humidity
74484;SHT31;62942;52.462;10.846;2023-03-25T00:01:02;7.6;88.6
74484;SHT31;62942;52.462;10.846;2023-03-25T00:02:11;7.6;88.5
74484;SHT31;62942;52.462;10.846;2023-03-25T00:03:11;7.6;88.5
74484;SHT31;62942;52.462;10.846;2023-03-25T00:04:21;7.5;88.4
74484;SHT31;62942;52.462;10.846;2023-03-25T00:05:21;7.6;88.3
74484;SHT31;62942;52.462;10.846;2023-03-25T00:06:31;7.6;88.4
74484;SHT31;62942;52.462;10.846;2023-03-25T00:07:41;7.5;88.4
74484;SHT31;62942;52.462;10.846;2023-03-25T00:08:51;7.6;88.4
74484;SHT31;62942;52.462;10.846;2023-03-25T00:10:01;7.6;88.5
74484;SHT31;62942;52.462;10.846;2023-03-25T00:11:11;7.6;88.3
74484;SHT31;62942;52.462;10.846;2023-03-25T00:12:11;7.7;88.2
74484;SHT31;62942;52.462;10.846;2023-03-25T00:13:21;7.7;88.1
74484;SHT31;62942;52.462;10.846;2023-03-25T00:14:31;7.8;88
74484;SHT31;62942;52.462;10.846;2023-03-25T00:15:31;7.8;87.9
74484;SHT31;62942;52.462;10.846;2023-03-25T00:16:41;7.8;87.7
74484;SHT31;62942;52.462;10.846;2023-03-25T00:17:51;7.8;87.5
74484;SHT31;62942;52.462;10.846;2023-03-25T00:19:01;7.9;87.4
74484;SHT31;62942;52.462;10.846;2023-03-25T00:20:01;7.9;87.3
74484;SHT31;62942;52.462;10.846;2023-03-25T00:21:11;7.9;87
74484;SHT31;62942;52.462;10.846;2023-03-25T00:22:21;7.9;87
74484;SHT31;62942;52.462;10.846;2023-03-25T00:23:31;8;86.9
74484;SHT31;62942;52.462;10.846;2023-03-25T00:24:31;8;86.8
74484;SHT31;62942;52.462;10.846;2023-03-25T00:25:41;8;86.7
74484;SHT31;62942;52.462;10.846;2023-03-25T00:26:51;8.1;86.5
74484;SHT31;62942;52.462;10.846;2023-03-25T00:28:01;8.1;86.4
74484;SHT31;62942;52.462;10.846;2023-03-25T00:29:01;8.1;86.3
74484;SHT31;62942;52.462;10.846;2023-03-25T00:30:11;8.2;86.1
74484;SHT31;62942;52.462;10.846;2023-03-25T00:31:11;8.2;86
74484;SHT31;62942;52.462;10.846;2023-03-25T00:32:21;8.3;85.9
74484;SHT31;62942;52.462;10.846;2023-03-25T00:33:21;8.3;85.9
74484;SHT31;62942;52.462;10.846;2023-03-25T00:34:31;8.3;85.9
74484;SHT31;62942;52.462;10.846;2023-03-25T00:35:41;8.3;85.8
74484;SHT31;62942;52.462;10.846;2023-03-25T00:36:51;8.3;85.6
74484;SHT31;62942;52.462;10.846;2023-03-25T00:37:51;8.3;85.6
74484;SHT31;62942;52.462;10.846;2023-03-25T00:38:51;8.4;85.5
74484;SHT31;62942;52.462;10.846;2023-03-25T00:40:01;8.4;85.5
74484;SHT31;62942;52.462;10.846;2023-03-25T00:41:11;8.3;85.4
74484;SHT31;62942;52.462;10.846;2023-03-25T00:42:12;8.4;85.4
74484;SHT31;62942;52.462;10.846;2023-03-25T00:43:21;8.3;85.3
74484;SHT31;62942;52.462;10.846;2023-03-25T00:44:31;8.3;85.3
74484;SHT31;62942;52.462;10.846;2023-03-25T00:45:31;8.4;85.3
74484;SHT31;62942;52.462;10.846;2023-03-25T00:46:31;8.3;85.3
74484;SHT31;62942;52.462;10.846;2023-03-25T00:47:41;8.3;85.3
74484;SHT31;62942;52.462;10.846;2023-03-25T00:48:41;8.3;85.3
74484;SHT31;62942;52.462;10.846;2023-03-25T00:49:41;8.3;85.3
74484;SHT31;62942;52.462;10.846;2023-03-25T00:50:51;8.3;85.3
74484;SHT31;62942;52.462;10.846;2023-03-25T00:52:01;8.3;85.3
74484;SHT31;62942;52.462;10.846;2023-03-25T00:53:01;8.3;85.3
74484;SHT31;62942;52.462;10.846;2023-03-25T00:54:11;8.3;85.3
74484;SHT31;62942;52.462;10.846;2023-03-25T00:55:11;8.2;85.2
74484;SHT31;62942;52.462;10.846;2023-03-25T00:56:21;8.2;85.2
74484;SHT31;62942;52.462;10.846;2023-03-25T00:57:31;8.2;85.4
74484;SHT31;62942;52.462;10.846;2023-03-25T00:58:41;8.2;85.4
74484;SHT31;62942;52.462;10.846;2023-03-25T00:59:51;8.2;85.5
74484;SHT31;62942;52.462;10.846;2023-03-25T01:00:51;8.2;85.5
74484;SHT31;62942;52.462;10.846;2023-03-25T01:02:01;8.2;85.4
74484;SHT31;62942;52.462;10.846;2023-03-25T01:03:11;8.2;85.4
74484;SHT31;62942;52.462;10.846;2023-03-25T01:04:21;8.2;85.4
74484;SHT31;62942;52.462;10.846;2023-03-25T01:05:31;8.2;85.4
74484;SHT31;62942;52.462;10.846;2023-03-25T01:06:41;8.2;85.4
74484;SHT31;62942;52.462;10.846;2023-03-25T01:07:41;8.2;85.4
74484;SHT31;62942;52.462;10.846;2023-03-25T01:08:42;8.2;85.4
74484;SHT31;62942;52.462;10.846;2023-03-25T01:09:51;8.2;85.4
74484;SHT31;62942;52.462;10.846;2023-03-25T01:11:01;8.2;85.4
74484;SHT31;62942;52.462;10.846;2023-03-25T01:12:01;8.2;85.4
74484;SHT31;62942;52.462;10.846;2023-03-25T01:13:01;8.2;85.4
74484;SHT31;62942;52.462;10.846;2023-03-25T01:14:12;8.2;85.4
74484;SHT31;62942;52.462;10.846;2023-03-25T01:15:21;8.2;85.4
74484;SHT31;62942;52.462;10.846;2023-03-25T01:16:31;8.2;85.3
74484;SHT31;62942;52.462;10.846;2023-03-25T01:17:41;8.2;85.3
74484;SHT31;62942;52.462;10.846;2023-03-25T01:18:51;8.2;85.2
74484;SHT31;62942;52.462;10.846;2023-03-25T01:19:51;8.2;85.3
74484;SHT31;62942;52.462;10.846;2023-03-25T01:20:51;8.2;85.3
74484;SHT31;62942;52.462;10.846;2023-03-25T01:22:01;8.2;85.3
74484;SHT31;62942;52.462;10.846;2023-03-25T01:23:01;8.2;85.3
74484;SHT31;62942;52.462;10.846;2023-03-25T01:24:12;8.2;85.2
74484;SHT31;62942;52.462;10.846;2023-03-25T01:25:21;8.2;85.2
74484;SHT31;62942;52.462;10.846;2023-03-25T01:26:31;8.2;85.1
74484;SHT31;62942;52.462;10.846;2023-03-25T01:27:31;8.3;85
74484;SHT31;62942;52.462;10.846;2023-03-25T01:28:41;8.3;85
74484;SHT31;62942;52.462;10.846;2023-03-25T01:29:51;8.3;84.9
74484;SHT31;62942;52.462;10.846;2023-03-25T01:31:01;8.3;84.8
74484;SHT31;62942;52.462;10.846;2023-03-25T01:32:11;8.3;84.8
74484;SHT31;62942;52.462;10.846;2023-03-25T01:33:21;8.2;84.8
74484;SHT31;62942;52.462;10.846;2023-03-25T01:34:21;8.2;84.9
74484;SHT31;62942;52.462;10.846;2023-03-25T01:35:31;8.2;85
74484;SHT31;62942;52.462;10.846;2023-03-25T01:36:41;8.2;85
74484;SHT31;62942;52.462;10.846;2023-03-25T01:37:51;8.2;85
74484;SHT31;62942;52.462;10.846;2023-03-25T01:39:01;8.1;85.1
74484;SHT31;62942;52.462;10.846;2023-03-25T01:40:15;8.1;85.2
74484;SHT31;62942;52.462;10.846;2023-03-25T01:41:11;8.1;85.2
74484;SHT31;62942;52.462;10.846;2023-03-25T01:42:21;8.1;85.3
74484;SHT31;62942;52.462;10.846;2023-03-25T01:43:31;8.1;85.3
74484;SHT31;62942;52.462;10.846;2023-03-25T01:45:36;8.1;85.2
74484;SHT31;62942;52.462;10.846;2023-03-25T01:45:41;8.1;85.2
74484;SHT31;62942;52.462;10.846;2023-03-25T01:46:51;8.1;85.2
74484;SHT31;62942;52.462;10.846;2023-03-25T01:47:53;8.1;85.2
74484;SHT31;62942;52.462;10.846;2023-03-25T01:49:01;8.1;85.2
74484;SHT31;62942;52.462;10.846;2023-03-25T01:50:11;8.1;85.2
74484;SHT31;62942;52.462;10.846;2023-03-25T01:51:11;8.1;85.2
74484;SHT31;62942;52.462;10.846;2023-03-25T01:52:11;8.1;85.2
74484;SHT31;62942;52.462;10.846;2023-03-25T01:53:21;8.1;85.2
74484;SHT31;62942;52.462;10.846;2023-03-25T01:54:31;8.1;85.3
74484;SHT31;62942;52.462;10.846;2023-03-25T01:55:41;8.1;85.3
74484;SHT31;62942;52.462;10.846;2023-03-25T01:56:51;8;85.3
74484;SHT31;62942;52.462;10.846;2023-03-25T01:57:51;8;85.4
74484;SHT31;62942;52.462;10.846;2023-03-25T01:59:02;8.1;85.4
74484;SHT31;62942;52.462;10.846;2023-03-25T02:00:01;8.1;85.4
74484;SHT31;62942;52.462;10.846;2023-03-25T02:01:11;8.1;85.3
74484;SHT31;62942;52.462;10.846;2023-03-25T02:02:21;8.1;85.2
74484;SHT31;62942;52.462;10.846;2023-03-25T02:03:31;8.1;85.2
74484;SHT31;62942;52.462;10.846;2023-03-25T02:04:42;8.1;85.3
74484;SHT31;62942;52.462;10.846;2023-03-25T02:05:52;8;85.3
74484;SHT31;62942;52.462;10.846;2023-03-25T02:06:51;8.1;85.3
74484;SHT31;62942;52.462;10.846;2023-03-25T02:08:01;8;85.3
74484;SHT31;62942;52.462;10.846;2023-03-25T02:09:12;8;85.4
74484;SHT31;62942;52.462;10.846;2023-03-25T02:10:21;8;85.5
74484;SHT31;62942;52.462;10.846;2023-03-25T02:11:31;8.1;85.6
74484;SHT31;62942;52.462;10.846;2023-03-25T02:12:41;8.1;85.6
74484;SHT31;62942;52.462;10.846;2023-03-25T02:13:41;8.1;85.5
74484;SHT31;62942;52.462;10.846;2023-03-25T02:14:51;8.1;85.5
74484;SHT31;62942;52.462;10.846;2023-03-25T02:16:05;8.1;85.5
74484;SHT31;62942;52.462;10.846;2023-03-25T02:17:12;8.2;85.4
74484;SHT31;62942;52.462;10.846;2023-03-25T02:18:25;8.2;85.3
74484;SHT31;62942;52.462;10.846;2023-03-25T02:19:52;8.3;85.2
74484;SHT31;62942;52.462;10.846;2023-03-25T02:20:48;8.3;85.1
74484;SHT31;62942;52.462;10.846;2023-03-25T02:21:44;8.3;84.9
74484;SHT31;62942;52.462;10.846;2023-03-25T02:22:45;8.4;84.9
74484;SHT31;62942;52.462;10.846;2023-03-25T02:23:55;8.4;84.8
74484;SHT31;62942;52.462;10.846;2023-03-25T02:25:08;8.4;84.7
74484;SHT31;62942;52.462;10.846;2023-03-25T02:26:18;8.4;84.7
74484;SHT31;62942;52.462;10.846;2023-03-25T02:27:21;8.5;84.6
74484;SHT31;62942;52.462;10.846;2023-03-25T02:28:21;8.5;84.4
74484;SHT31;62942;52.462;10.846;2023-03-25T02:29:36;8.5;84.4
74484;SHT31;62942;52.462;10.846;2023-03-25T02:31:01;8.5;84.3
74484;SHT31;62942;52.462;10.846;2023-03-25T02:31:53;8.6;84.2
74484;SHT31;62942;52.462;10.846;2023-03-25T02:33:07;8.6;84.1
74484;SHT31;62942;52.462;10.846;2023-03-25T02:35:14;8.6;83.9
74484;SHT31;62942;52.462;10.846;2023-03-25T02:35:22;8.6;84
74484;SHT31;62942;52.462;10.846;2023-03-25T02:36:16;8.7;83.8
74484;SHT31;62942;52.462;10.846;2023-03-25T02:37:28;8.7;83.8
74484;SHT31;62942;52.462;10.846;2023-03-25T02:38:33;8.7;83.5
74484;SHT31;62942;52.462;10.846;2023-03-25T02:39:31;8.8;83.4
74484;SHT31;62942;52.462;10.846;2023-03-25T02:40:42;8.8;83.3
74484;SHT31;62942;52.462;10.846;2023-03-25T02:41:52;8.8;83.1
74484;SHT31;62942;52.462;10.846;2023-03-25T02:43:02;8.9;83.1
74484;SHT31;62942;52.462;10.846;2023-03-25T02:44:11;8.9;83
74484;SHT31;62942;52.462;10.846;2023-03-25T02:45:11;8.9;83
74484;SHT31;62942;52.462;10.846;2023-03-25T02:46:21;8.9;82.8
74484;SHT31;62942;52.462;10.846;2023-03-25T02:47:31;8.9;82.8
74484;SHT31;62942;52.462;10.846;2023-03-25T02:48:41;8.9;82.7
74484;SHT31;62942;52.462;10.846;2023-03-25T02:49:51;8.9;82.6
74484;SHT31;62942;52.462;10.846;2023-03-25T02:50:51;9;82.6
74484;SHT31;62942;52.462;10.846;2023-03-25T02:52:03;8.9;82.5
74484;SHT31;62942;52.462;10.846;2023-03-25T02:53:13;9;82.5
74484;SHT31;62942;52.462;10.846;2023-03-25T02:54:21;9;82.4
74484;SHT31;62942;52.462;10.846;2023-03-25T02:55:21;9;82.4
74484;SHT31;62942;52.462;10.846;2023-03-25T02:56:31;9;82.4
74484;SHT31;62942;52.462;10.846;2023-03-25T02:57:41;9;82.4
74484;SHT31;62942;52.462;10.846;2023-03-25T02:58:41;9;82.3
74484;SHT31;62942;52.462;10.846;2023-03-25T02:59:51;9;82.2
74484;SHT31;62942;52.462;10.846;2023-03-25T03:01:01;9;82.3
74484;SHT31;62942;52.462;10.846;2023-03-25T03:02:01;9;82.2
74484;SHT31;62942;52.462;10.846;2023-03-25T03:03:01;9;82.1
74484;SHT31;62942;52.462;10.846;2023-03-25T03:04:11;9.1;82.1
74484;SHT31;62942;52.462;10.846;2023-03-25T03:05:22;9;82.1
74484;SHT31;62942;52.462;10.846;2023-03-25T03:06:31;9.1;81.9
74484;SHT31;62942;52.462;10.846;2023-03-25T03:07:41;9.1;81.8
74484;SHT31;62942;52.462;10.846;2023-03-25T03:08:55;9.1;81.9
74484;SHT31;62942;52.462;10.846;2023-03-25T03:10:03;9.1;81.8
74484;SHT31;62942;52.462;10.846;2023-03-25T03:11:11;9.1;81.7
74484;SHT31;62942;52.462;10.846;2023-03-25T03:12:17;9.1;81.7
74484;SHT31;62942;52.462;10.846;2023-03-25T03:13:23;9.1;81.7
74484;SHT31;62942;52.462;10.846;2023-03-25T03:14:33;9.1;81.7
74484;SHT31;62942;52.462;10.846;2023-03-25T03:15:33;9.1;81.6
74484;SHT31;62942;52.462;10.846;2023-03-25T03:16:43;9.1;81.7
74484;SHT31;62942;52.462;10.846;2023-03-25T03:17:53;9.1;81.8
74484;SHT31;62942;52.462;10.846;2023-03-25T03:19:02;9.1;81.8
74484;SHT31;62942;52.462;10.846;2023-03-25T03:20:12;9.1;81.8
74484;SHT31;62942;52.462;10.846;2023-03-25T03:21:21;9.1;81.9
74484;SHT31;62942;52.462;10.846;2023-03-25T03:22:33;9.1;81.8
74484;SHT31;62942;52.462;10.846;2023-03-25T03:23:43;9;81.5
74484;SHT31;62942;52.462;10.846;2023-03-25T03:24:42;9;81.6
74484;SHT31;62942;52.462;10.846;2023-03-25T03:25:51;9.1;81.6
74484;SHT31;62942;52.462;10.846;2023-03-25T03:27:03;9.1;81.6
74484;SHT31;62942;52.462;10.846;2023-03-25T03:28:02;9.1;81.5
74484;SHT31;62942;52.462;10.846;2023-03-25T03:29:02;9.1;81.5
74484;SHT31;62942;52.462;10.846;2023-03-25T03:30:03;9.1;81.4
74484;SHT31;62942;52.462;10.846;2023-03-25T03:31:11;9.1;81.1
74484;SHT31;62942;52.462;10.846;2023-03-25T03:32:21;9.1;81.2
74484;SHT31;62942;52.462;10.846;2023-03-25T03:33:22;9.1;81.2
74484;SHT31;62942;52.462;10.846;2023-03-25T03:34:22;9.1;81.2
74484;SHT31;62942;52.462;10.846;2023-03-25T03:35:32;9.1;81.2
74484;SHT31;62942;52.462;10.846;2023-03-25T03:36:31;9.1;81.3
74484;SHT31;62942;52.462;10.846;2023-03-25T03:37:31;9.1;81.4
74484;SHT31;62942;52.462;10.846;2023-03-25T03:38:42;9.1;81.3
74484;SHT31;62942;52.462;10.846;2023-03-25T03:39:41;9.1;81.4
74484;SHT31;62942;52.462;10.846;2023-03-25T03:40:51;9.1;81.5
74484;SHT31;62942;52.462;10.846;2023-03-25T03:42:01;9.1;81.4
74484;SHT31;62942;52.462;10.846;2023-03-25T03:43:12;9;81.5
74484;SHT31;62942;52.462;10.846;2023-03-25T03:44:11;9;81.5
74484;SHT31;62942;52.462;10.846;2023-03-25T03:45:21;9;81.5
74484;SHT31;62942;52.462;10.846;2023-03-25T03:46:32;9;81.6
74484;SHT31;62942;52.462;10.846;2023-03-25T03:47:42;9;81.6
74484;SHT31;62942;52.462;10.846;2023-03-25T03:48:41;9;81.6
74484;SHT31;62942;52.462;10.846;2023-03-25T03:49:41;9;81.5
74484;SHT31;62942;52.462;10.846;2023-03-25T03:50:51;9;81.5
74484;SHT31;62942;52.462;10.846;2023-03-25T03:51:51;9;81.3
74484;SHT31;62942;52.462;10.846;2023-03-25T03:53:02;9;81.3
74484;SHT31;62942;52.462;10.846;2023-03-25T03:54:01;8.9;81.4
74484;SHT31;62942;52.462;10.846;2023-03-25T03:55:01;8.9;81.2
74484;SHT31;62942;52.462;10.846;2023-03-25T03:56:01;9;81.2
74484;SHT31;62942;52.462;10.846;2023-03-25T03:57:11;8.9;81.2
74484;SHT31;62942;52.462;10.846;2023-03-25T03:58:21;8.9;81.2
74484;SHT31;62942;52.462;10.846;2023-03-25T03:59:22;8.9;81
74484;SHT31;62942;52.462;10.846;2023-03-25T04:00:31;9;81
74484;SHT31;62942;52.462;10.846;2023-03-25T04:01:41;9;80.8
74484;SHT31;62942;52.462;10.846;2023-03-25T04:02:51;9;80.8
74484;SHT31;62942;52.462;10.846;2023-03-25T04:04:01;9;80.7
74484;SHT31;62942;52.462;10.846;2023-03-25T04:05:00;9;80.6
74484;SHT31;62942;52.462;10.846;2023-03-25T04:06:13;9;80.6
74484;SHT31;62942;52.462;10.846;2023-03-25T04:07:21;9;80.7
74484;SHT31;62942;52.462;10.846;2023-03-25T04:08:22;9;80.7
74484;SHT31;62942;52.462;10.846;2023-03-25T04:09:31;9;80.7
74484;SHT31;62942;52.462;10.846;2023-03-25T04:10:32;9;80.5
74484;SHT31;62942;52.462;10.846;2023-03-25T04:11:41;9;80.2
74484;SHT31;62942;52.462;10.846;2023-03-25T04:12:51;9;80.5
74484;SHT31;62942;52.462;10.846;2023-03-25T04:13:51;9;80.5
74484;SHT31;62942;52.462;10.846;2023-03-25T04:15:00;9;80.5
74484;SHT31;62942;52.462;10.846;2023-03-25T04:16:00;9;80.4
74484;SHT31;62942;52.462;10.846;2023-03-25T04:17:10;9;80.5
74484;SHT31;62942;52.462;10.846;2023-03-25T04:18:11;9;80.3
74484;SHT31;62942;52.462;10.846;2023-03-25T04:19:20;9;80.2
74484;SHT31;62942;52.462;10.846;2023-03-25T04:20:31;9;80.1
74484;SHT31;62942;52.462;10.846;2023-03-25T04:21:31;9;80
74484;SHT31;62942;52.462;10.846;2023-03-25T04:22:40;9;80.1
74484;SHT31;62942;52.462;10.846;2023-03-25T04:23:50;9;80
74484;SHT31;62942;52.462;10.846;2023-03-25T04:24:50;9;80
74484;SHT31;62942;52.462;10.846;2023-03-25T04:26:00;9;80.3
74484;SHT31;62942;52.462;10.846;2023-03-25T04:27:00;9;80.2
74484;SHT31;62942;52.462;10.846;2023-03-25T04:28:00;9;80.7
74484;SHT31;62942;52.462;10.846;2023-03-25T04:29:10;9;80.7
74484;SHT31;62942;52.462;10.846;2023-03-25T04:30:11;8.9;80.9
74484;SHT31;62942;52.462;10.846;2023-03-25T04:31:20;8.9;81
74484;SHT31;62942;52.462;10.846;2023-03-25T04:32:30;8.8;81.2
74484;SHT31;62942;52.462;10.846;2023-03-25T04:33:30;8.8;81.3
74484;SHT31;62942;52.462;10.846;2023-03-25T04:34:40;8.8;81.3
74484;SHT31;62942;52.462;10.846;2023-03-25T04:35:50;8.8;81.3
74484;SHT31;62942;52.462;10.846;2023-03-25T04:36:50;8.7;81.3
74484;SHT31;62942;52.462;10.846;2023-03-25T04:38:00;8.7;81.5
74484;SHT31;62942;52.462;10.846;2023-03-25T04:39:10;8.7;81.4
74484;SHT31;62942;52.462;10.846;2023-03-25T04:40:20;8.7;81.3
74484;SHT31;62942;52.462;10.846;2023-03-25T04:41:30;8.7;81.3
74484;SHT31;62942;52.462;10.846;2023-03-25T04:42:30;8.7;81.3
74484;SHT31;62942;52.462;10.846;2023-03-25T04:43:40;8.6;81.2
74484;SHT31;62942;52.462;10.846;2023-03-25T04:44:50;8.6;81.2
74484;SHT31;62942;52.462;10.846;2023-03-25T04:45:50;8.5;81.3
74484;SHT31;62942;52.462;10.846;2023-03-25T04:46:50;8.5;81.1
74484;SHT31;62942;52.462;10.846;2023-03-25T04:48:00;8.5;80.9
74484;SHT31;62942;52.462;10.846;2023-03-25T04:49:00;8.5;81
74484;SHT31;62942;52.462;10.846;2023-03-25T04:50:13;8.5;80.9
74484;SHT31;62942;52.462;10.846;2023-03-25T04:51:11;8.4;80.9
74484;SHT31;62942;52.462;10.846;2023-03-25T04:52:20;8.4;80.8
74484;SHT31;62942;52.462;10.846;2023-03-25T04:53:30;8.4;80.7
74484;SHT31;62942;52.462;10.846;2023-03-25T04:54:40;8.4;80.6
74484;SHT31;62942;52.462;10.846;2023-03-25T04:55:50;8.4;80.6
74484;SHT31;62942;52.462;10.846;2023-03-25T04:57:00;8.4;80.6
74484;SHT31;62942;52.462;10.846;2023-03-25T04:58:10;8.4;80.7
74484;SHT31;62942;52.462;10.846;2023-03-25T04:59:20;8.3;80.7
74484;SHT31;62942;52.462;10.846;2023-03-25T05:00:30;8.3;80.6
74484;SHT31;62942;52.462;10.846;2023-03-25T05:01:30;8.3;80.6
74484;SHT31;62942;52.462;10.846;2023-03-25T05:02:42;8.3;80.6
74484;SHT31;62942;52.462;10.846;2023-03-25T05:03:50;8.3;80.4
74484;SHT31;62942;52.462;10.846;2023-03-25T05:04:50;8.3;80.5
74484;SHT31;62942;52.462;10.846;2023-03-25T05:05:51;8.3;80.3
74484;SHT31;62942;52.462;10.846;2023-03-25T05:07:00;8.2;80.4
74484;SHT31;62942;52.462;10.846;2023-03-25T05:08:10;8.2;80.4
74484;SHT31;62942;52.462;10.846;2023-03-25T05:09:20;8.2;80.3
74484;SHT31;62942;52.462;10.846;2023-03-25T05:10:21;8.2;80.4
74484;SHT31;62942;52.462;10.846;2023-03-25T05:11:31;8.2;80.5
74484;SHT31;62942;52.462;10.846;2023-03-25T05:12:41;8.2;80.4
74484;SHT31;62942;52.462;10.846;2023-03-25T05:13:50;8.1;80.4
74484;SHT31;62942;52.462;10.846;2023-03-25T05:15:00;8.2;80.1
74484;SHT31;62942;52.462;10.846;2023-03-25T05:16:00;8.2;80.2
74484;SHT31;62942;52.462;10.846;2023-03-25T05:17:10;8.2;80.2
74484;SHT31;62942;52.462;10.846;2023-03-25T05:18:11;8.2;80.1
74484;SHT31;62942;52.462;10.846;2023-03-25T05:19:20;8.2;80.2
74484;SHT31;62942;52.462;10.846;2023-03-25T05:20:20;8.2;80.2
74484;SHT31;62942;52.462;10.846;2023-03-25T05:21:31;8.1;80.2
74484;SHT31;62942;52.462;10.846;2023-03-25T05:22:30;8.2;80.2
74484;SHT31;62942;52.462;10.846;2023-03-25T05:23:40;8.2;80.2
74484;SHT31;62942;52.462;10.846;2023-03-25T05:24:40;8.3;79.7
74484;SHT31;62942;52.462;10.846;2023-03-25T05:25:50;8.3;79.8
74484;SHT31;62942;52.462;10.846;2023-03-25T05:27:00;8.3;79.6
74484;SHT31;62942;52.462;10.846;2023-03-25T05:28:10;8.4;79.2
74484;SHT31;62942;52.462;10.846;2023-03-25T05:29:11;8.4;79.3
74484;SHT31;62942;52.462;10.846;2023-03-25T05:30:20;8.4;79.2
74484;SHT31;62942;52.462;10.846;2023-03-25T05:31:30;8.4;79
74484;SHT31;62942;52.462;10.846;2023-03-25T05:32:40;8.5;78.7
74484;SHT31;62942;52.462;10.846;2023-03-25T05:33:50;8.5;78.8
74484;SHT31;62942;52.462;10.846;2023-03-25T05:35:01;8.4;78.8
74484;SHT31;62942;52.462;10.846;2023-03-25T05:36:11;8.5;78.8
74484;SHT31;62942;52.462;10.846;2023-03-25T05:37:20;8.4;78.8
74484;SHT31;62942;52.462;10.846;2023-03-25T05:38:30;8.4;78.8
74484;SHT31;62942;52.462;10.846;2023-03-25T05:39:30;8.4;78.8
74484;SHT31;62942;52.462;10.846;2023-03-25T05:40:40;8.4;78.9
74484;SHT31;62942;52.462;10.846;2023-03-25T05:41:40;8.3;78.9
74484;SHT31;62942;52.462;10.846;2023-03-25T05:42:41;8.3;79
74484;SHT31;62942;52.462;10.846;2023-03-25T05:43:50;8.3;79
74484;SHT31;62942;52.462;10.846;2023-03-25T05:44:51;8.2;78.9
74484;SHT31;62942;52.462;10.846;2023-03-25T05:46:00;8.2;79
74484;SHT31;62942;52.462;10.846;2023-03-25T05:47:10;8.2;79
74484;SHT31;62942;52.462;10.846;2023-03-25T05:48:10;8.2;78.8
74484;SHT31;62942;52.462;10.846;2023-03-25T05:49:10;8.3;78.7
74484;SHT31;62942;52.462;10.846;2023-03-25T05:50:20;8.3;78.6
74484;SHT31;62942;52.462;10.846;2023-03-25T05:51:31;8.4;78.3
74484;SHT31;62942;52.462;10.846;2023-03-25T05:52:30;8.4;77.9
74484;SHT31;62942;52.462;10.846;2023-03-25T05:53:40;8.6;77.6
74484;SHT31;62942;52.462;10.846;2023-03-25T05:54:40;8.6;77.7
74484;SHT31;62942;52.462;10.846;2023-03-25T05:55:40;8.6;77.5
74484;SHT31;62942;52.462;10.846;2023-03-25T05:56:50;8.7;77
74484;SHT31;62942;52.462;10.846;2023-03-25T05:58:00;8.7;77.1
74484;SHT31;62942;52.462;10.846;2023-03-25T05:59:10;8.8;77.1
74484;SHT31;62942;52.462;10.846;2023-03-25T06:00:11;8.8;77.1
74484;SHT31;62942;52.462;10.846;2023-03-25T06:01:20;8.8;77.1
74484;SHT31;62942;52.462;10.846;2023-03-25T06:02:30;8.9;77.1
74484;SHT31;62942;52.462;10.846;2023-03-25T06:03:40;8.9;76.9
74484;SHT31;62942;52.462;10.846;2023-03-25T06:04:40;9;76.5
74484;SHT31;62942;52.462;10.846;2023-03-25T06:05:40;9;76.4
74484;SHT31;62942;52.462;10.846;2023-03-25T06:06:40;9;76.4
74484;SHT31;62942;52.462;10.846;2023-03-25T06:07:50;9;76.5
74484;SHT31;62942;52.462;10.846;2023-03-25T06:09:00;9;76.5
74484;SHT31;62942;52.462;10.846;2023-03-25T06:10:00;8.9;76.6
74484;SHT31;62942;52.462;10.846;2023-03-25T06:11:10;8.9;76.9
74484;SHT31;62942;52.462;10.846;2023-03-25T06:12:21;8.9;77.2
74484;SHT31;62942;52.462;10.846;2023-03-25T06:13:20;8.8;77.4
74484;SHT31;62942;52.462;10.846;2023-03-25T06:14:30;8.8;78.5
74484;SHT31;62942;52.462;10.846;2023-03-25T06:15:30;8.7;78.5
74484;SHT31;62942;52.462;10.846;2023-03-25T06:16:40;8.7;78.6
74484;SHT31;62942;52.462;10.846;2023-03-25T06:17:40;8.6;79
74484;SHT31;62942;52.462;10.846;2023-03-25T06:18:40;8.6;79.2
74484;SHT31;62942;52.462;10.846;2023-03-25T06:19:50;8.5;79.7
74484;SHT31;62942;52.462;10.846;2023-03-25T06:21:00;8.4;79.9
74484;SHT31;62942;52.462;10.846;2023-03-25T06:22:10;8.5;79.9
74484;SHT31;62942;52.462;10.846;2023-03-25T06:23:20;8.4;80.2
74484;SHT31;62942;52.462;10.846;2023-03-25T06:24:20;8.4;80.2
74484;SHT31;62942;52.462;10.846;2023-03-25T06:25:30;8.4;80.3
74484;SHT31;62942;52.462;10.846;2023-03-25T06:26:30;8.4;80.3
74484;SHT31;62942;52.462;10.846;2023-03-25T06:27:40;8.4;80.3
74484;SHT31;62942;52.462;10.846;2023-03-25T06:28:40;8.4;80.6
74484;SHT31;62942;52.462;10.846;2023-03-25T06:29:50;8.5;80.6
74484;SHT31;62942;52.462;10.846;2023-03-25T06:31:00;8.5;80.6
74484;SHT31;62942;52.462;10.846;2023-03-25T06:32:11;8.5;80.6
74484;SHT31;62942;52.462;10.846;2023-03-25T06:33:20;8.5;80.6
74484;SHT31;62942;52.462;10.846;2023-03-25T06:34:30;8.5;80.5
74484;SHT31;62942;52.462;10.846;2023-03-25T06:35:40;8.5;80.5
74484;SHT31;62942;52.462;10.846;2023-03-25T06:36:40;8.5;80.5
74484;SHT31;62942;52.462;10.846;2023-03-25T06:37:50;8.5;80.5
74484;SHT31;62942;52.462;10.846;2023-03-25T06:39:00;8.5;80.6
74484;SHT31;62942;52.462;10.846;2023-03-25T06:40:10;8.5;80.6
74484;SHT31;62942;52.462;10.846;2023-03-25T06:41:20;8.5;80.7
74484;SHT31;62942;52.462;10.846;2023-03-25T06:42:20;8.5;81
74484;SHT31;62942;52.462;10.846;2023-03-25T06:43:30;8.5;80.9
74484;SHT31;62942;52.462;10.846;2023-03-25T06:44:40;8.5;81.6
74484;SHT31;62942;52.462;10.846;2023-03-25T06:45:50;8.5;81.7
74484;SHT31;62942;52.462;10.846;2023-03-25T06:46:50;8.5;82.4
74484;SHT31;62942;52.462;10.846;2023-03-25T06:48:00;8.4;82.1
74484;SHT31;62942;52.462;10.846;2023-03-25T06:49:10;8.4;82.6
74484;SHT31;62942;52.462;10.846;2023-03-25T06:50:20;8.3;83.1
74484;SHT31;62942;52.462;10.846;2023-03-25T06:51:20;8.3;83.8
74484;SHT31;62942;52.462;10.846;2023-03-25T06:52:30;8.3;83.9
74484;SHT31;62942;52.462;10.846;2023-03-25T06:53:40;8.2;84.4
74484;SHT31;62942;52.462;10.846;2023-03-25T06:54:50;8.2;84.9
74484;SHT31;62942;52.462;10.846;2023-03-25T06:56:00;8.2;84.8
74484;SHT31;62942;52.462;10.846;2023-03-25T06:57:10;8.2;85.2
74484;SHT31;62942;52.462;10.846;2023-03-25T06:58:10;8.2;85
74484;SHT31;62942;52.462;10.846;2023-03-25T06:59:20;8.2;85.3
74484;SHT31;62942;52.462;10.846;2023-03-25T07:00:30;8.2;85.2
74484;SHT31;62942;52.462;10.846;2023-03-25T07:01:30;8.2;85.5
74484;SHT31;62942;52.462;10.846;2023-03-25T07:02:40;8.2;85.6
74484;SHT31;62942;52.462;10.846;2023-03-25T07:03:40;8.2;85.7
74484;SHT31;62942;52.462;10.846;2023-03-25T07:04:50;8.2;85.5
74484;SHT31;62942;52.462;10.846;2023-03-25T07:06:00;8.3;85.4
74484;SHT31;62942;52.462;10.846;2023-03-25T07:07:10;8.3;85.4
74484;SHT31;62942;52.462;10.846;2023-03-25T07:08:20;8.4;85.1
74484;SHT31;62942;52.462;10.846;2023-03-25T07:09:30;8.4;85
74484;SHT31;62942;52.462;10.846;2023-03-25T07:10:30;8.4;85.1
74484;SHT31;62942;52.462;10.846;2023-03-25T07:11:40;8.5;85
74484;SHT31;62942;52.462;10.846;2023-03-25T07:12:50;8.5;84.8
74484;SHT31;62942;52.462;10.846;2023-03-25T07:13:50;8.6;84.7
74484;SHT31;62942;52.462;10.846;2023-03-25T07:15:00;8.6;84.5
74484;SHT31;62942;52.462;10.846;2023-03-25T07:16:10;8.7;84.3
74484;SHT31;62942;52.462;10.846;2023-03-25T07:17:20;8.7;84.3
74484;SHT31;62942;52.462;10.846;2023-03-25T07:18:30;8.8;84
74484;SHT31;62942;52.462;10.846;2023-03-25T07:19:30;8.8;84